createdAt,value
2018-11-13T00:01:50.206Z,100614.22
2018-11-13T00:04:19.926Z,100617.16
2018-11-13T00:06:49.735Z,100616.33
2018-11-13T00:09:19.488Z,100616.64
2018-11-13T00:11:49.198Z,100610.84
2018-11-13T00:14:19.072Z,100613.56
2018-11-13T00:16:49.125Z,100619.06
2018-11-13T00:19:18.987Z,100604.38
2018-11-13T00:21:48.927Z,100606.34
2018-11-13T00:24:19.483Z,100613.56
2018-11-13T00:26:49.362Z,100612.40
2018-11-13T00:29:19.103Z,100618.77
2018-11-13T00:31:48.998Z,100618.37
2018-11-13T00:34:18.882Z,100626.71
2018-11-13T00:36:49.023Z,100621.13
2018-11-13T00:39:19.144Z,100610.92
2018-11-13T00:41:49.494Z,100606.48
2018-11-13T00:44:19.388Z,100612.88
2018-11-13T00:46:49.588Z,100613.48
2018-11-13T00:49:19.462Z,100625.01
2018-11-13T00:51:49.227Z,100623.81
2018-11-13T00:54:19.154Z,100623.83
2018-11-13T00:57:03.401Z,100625.22
2018-11-13T00:59:33.208Z,100621.88
2018-11-13T01:02:02.984Z,100616.72
2018-11-13T01:04:32.831Z,100620.30
2018-11-13T01:07:02.896Z,100626.78
2018-11-13T01:09:32.823Z,100629.20
2018-11-13T01:12:02.788Z,100630.80
2018-11-13T01:14:32.681Z,100634.18
2018-11-13T01:17:02.377Z,100629.12
2018-11-13T01:19:32.179Z,100633.23
2018-11-13T01:22:01.927Z,100638.41
2018-11-13T01:24:31.764Z,100636.02
2018-11-13T01:27:01.598Z,100634.34
2018-11-13T01:29:31.383Z,100638.58
2018-11-13T01:32:01.291Z,100644.22
2018-11-13T01:34:31.301Z,100648.58
2018-11-13T01:37:01.195Z,100641.35
2018-11-13T01:39:30.961Z,100646.50
2018-11-13T01:42:00.903Z,100632.89
2018-11-13T01:44:30.597Z,100633.36
2018-11-13T01:47:00.352Z,100637.21
2018-11-13T01:49:30.058Z,100641.66
2018-11-13T01:52:01.598Z,100638.88
2018-11-13T01:54:31.693Z,100640.91
2018-11-13T01:57:01.574Z,100635.81
2018-11-13T01:59:31.492Z,100641.70
2018-11-13T02:02:03.727Z,100638.58
2018-11-13T02:04:37.312Z,100635.67
2018-11-13T02:07:08.466Z,100615.91
2018-11-13T02:09:38.286Z,100631.11
2018-11-13T02:12:08.067Z,100642.19
2018-11-13T02:17:46.193Z,100635.81
2018-11-13T02:20:18.318Z,100640.66
2018-11-13T02:22:47.820Z,100646.68
2018-11-13T02:25:18.531Z,100651.13
2018-11-13T02:27:48.694Z,100661.16
2018-11-13T02:30:20.912Z,100660.47
2018-11-13T02:32:50.608Z,100654.19
2018-11-13T02:35:20.416Z,100645.75
2018-11-13T02:37:49.807Z,100636.93
2018-11-13T02:40:19.343Z,100635.11
2018-11-13T02:42:48.899Z,100636.56
2018-11-13T02:45:19.930Z,100643.92
2018-11-13T02:47:49.546Z,100647.16
2018-11-13T02:50:21.174Z,100647.30
2018-11-13T02:52:50.915Z,100652.73
2018-11-13T02:55:20.370Z,100645.50
2018-11-13T02:57:49.965Z,100651.02
2018-11-13T03:00:21.882Z,100657.91
2018-11-13T03:02:52.221Z,100650.33
2018-11-13T03:05:22.465Z,100640.91
2018-11-13T03:07:52.001Z,100624.48
2018-11-13T03:10:21.734Z,100617.27
2018-11-13T03:12:51.213Z,100620.23
2018-11-13T03:15:21.871Z,100633.42
2018-11-13T03:17:51.654Z,100646.68
2018-11-13T03:20:21.692Z,100649.08
2018-11-13T03:22:51.481Z,100652.91
2018-11-13T03:25:22.482Z,100655.45
2018-11-13T03:27:52.470Z,100643.02
2018-11-13T03:33:12.766Z,100643.95
2018-11-13T03:35:42.498Z,100646.14
2018-11-13T03:38:12.411Z,100663.53
2018-11-13T03:40:42.377Z,100664.13
2018-11-13T03:43:12.237Z,100664.45
2018-11-13T03:45:42.004Z,100667.37
2018-11-13T03:48:11.929Z,100665.58
2018-11-13T03:50:41.686Z,100660.47
2018-11-13T03:53:11.882Z,100652.02
2018-11-13T03:55:41.800Z,100651.23
2018-11-13T03:58:11.708Z,100647.63
2018-11-13T04:00:41.566Z,100637.81
2018-11-13T04:03:11.702Z,100632.71
2018-11-13T04:05:41.707Z,100637.16
2018-11-13T04:08:11.467Z,100631.97
2018-11-13T04:10:41.282Z,100628.20
2018-11-13T04:13:11.875Z,100631.70
2018-11-13T04:15:41.875Z,100629.13
2018-11-13T04:18:11.619Z,100631.45
2018-11-13T04:20:41.511Z,100628.05
2018-11-13T04:23:11.498Z,100630.72
2018-11-13T04:25:41.569Z,100620.97
2018-11-13T04:28:11.874Z,100628.68
2018-11-13T04:30:41.997Z,100636.56
2018-11-13T04:33:12.173Z,100635.95
2018-11-13T04:35:42.167Z,100641.00
2018-11-13T04:38:12.381Z,100636.03
2018-11-13T04:40:42.622Z,100637.00
2018-11-13T04:43:12.648Z,100646.77
2018-11-13T04:45:42.776Z,100656.40
2018-11-13T04:48:12.578Z,100653.89
2018-11-13T04:50:42.393Z,100650.49
2018-11-13T04:53:12.395Z,100647.36
2018-11-13T04:55:42.678Z,100658.59
2018-11-13T04:58:12.942Z,100660.52
2018-11-13T05:00:43.309Z,100656.19
2018-11-13T05:03:13.987Z,100656.19
2018-11-13T05:05:43.840Z,100657.52
2018-11-13T05:08:19.107Z,100648.70
2018-11-13T05:10:50.075Z,100654.16
2018-11-13T05:13:20.195Z,100661.13
2018-11-13T05:15:50.212Z,100663.79
2018-11-13T05:18:20.462Z,100660.66
2018-11-13T05:20:53.743Z,100656.66
2018-11-13T05:23:24.781Z,100659.31
2018-11-13T05:25:55.366Z,100664.11
2018-11-13T05:28:26.386Z,100664.11
2018-11-13T05:30:59.709Z,100672.81
2018-11-13T05:33:31.059Z,100681.05
2018-11-13T05:36:00.988Z,100692.64
2018-11-13T05:38:30.836Z,100689.00
2018-11-13T05:41:02.694Z,100698.67
2018-11-13T05:43:33.897Z,100704.33
2018-11-13T05:46:04.398Z,100701.20
2018-11-13T05:48:34.402Z,100692.98
2018-11-13T05:51:04.236Z,100703.85
2018-11-13T05:53:34.391Z,100711.31
2018-11-13T05:56:04.418Z,100699.72
2018-11-13T05:58:34.753Z,100717.20
2018-11-13T06:01:04.716Z,100722.64
2018-11-13T06:03:34.649Z,100736.05
2018-11-13T06:06:04.580Z,100754.63
2018-11-13T06:08:35.966Z,100758.75
2018-11-13T06:11:07.279Z,100760.91
2018-11-13T06:13:38.290Z,100772.64
2018-11-13T06:16:09.033Z,100778.30
2018-11-13T06:18:40.623Z,100774.83
2018-11-13T06:21:11.237Z,100780.52
2018-11-13T06:23:42.134Z,100788.22
2018-11-13T06:26:13.136Z,100791.59
2018-11-13T06:28:43.662Z,100790.03
2018-11-13T06:31:13.793Z,100789.91
2018-11-13T06:33:43.561Z,100788.83
2018-11-13T06:36:13.421Z,100790.16
2018-11-13T06:38:43.260Z,100789.91
2018-11-13T06:41:13.174Z,100774.60
2018-11-13T06:43:43.105Z,100777.25
2018-11-13T06:46:12.970Z,100773.03
2018-11-13T06:48:42.726Z,100783.42
2018-11-13T06:51:16.727Z,100791.85
2018-11-13T06:53:57.785Z,100792.92
2018-11-13T06:56:34.743Z,100793.41
2018-11-13T06:59:04.763Z,100802.34
2018-11-13T07:01:34.850Z,100808.85
2018-11-13T07:04:07.566Z,100809.20
2018-11-13T07:06:41.139Z,100795.58
2018-11-13T07:09:13.983Z,100788.23
2018-11-13T07:11:46.903Z,100793.50
2018-11-13T07:14:17.193Z,100800.86
2018-11-13T07:16:48.138Z,100798.59
2018-11-13T07:19:19.821Z,100802.91
2018-11-13T07:21:51.745Z,100807.75
2018-11-13T07:24:24.636Z,100811.73
2018-11-13T07:26:54.797Z,100812.20
2018-11-13T07:29:24.837Z,100810.53
2018-11-13T07:31:55.965Z,100819.22
2018-11-13T07:34:26.160Z,100826.58
2018-11-13T07:36:56.272Z,100837.06
2018-11-13T07:39:27.159Z,100839.24
2018-11-13T07:41:57.076Z,100834.89
2018-11-13T07:44:31.127Z,100839.59
2018-11-13T07:47:02.276Z,100834.41
2018-11-13T07:49:32.176Z,100841.39
2018-11-13T07:52:02.045Z,100840.55
2018-11-13T07:54:32.415Z,100843.20
2018-11-13T07:57:02.517Z,100844.17
2018-11-13T07:59:32.466Z,100849.47
2018-11-13T08:02:02.557Z,100843.30
2018-11-13T08:04:33.922Z,100836.41
2018-11-13T08:07:04.779Z,100832.42
2018-11-13T08:09:34.828Z,100832.55
2018-11-13T08:12:04.898Z,100850.03
2018-11-13T08:14:34.886Z,100858.26
2018-11-13T08:17:05.067Z,100853.33
2018-11-13T08:19:35.145Z,100853.08
2018-11-13T08:22:05.442Z,100857.45
2018-11-13T08:24:35.791Z,100862.72
2018-11-13T08:27:06.749Z,100872.18
2018-11-13T08:29:38.507Z,100866.36
2018-11-13T08:32:10.521Z,100881.94
2018-11-13T08:34:41.521Z,100881.94
2018-11-13T08:37:11.527Z,100884.69
2018-11-13T08:39:42.020Z,100893.16
2018-11-13T08:42:12.004Z,100901.72
2018-11-13T08:44:41.929Z,100904.13
2018-11-13T08:47:11.992Z,100905.58
2018-11-13T08:49:42.636Z,100900.39
2018-11-13T08:52:12.637Z,100904.25
2018-11-13T08:54:42.445Z,100913.20
2018-11-13T08:57:12.542Z,100920.09
2018-11-13T08:59:43.380Z,100936.38
2018-11-13T09:02:13.741Z,100946.40
2018-11-13T09:04:43.946Z,100948.08
2018-11-13T09:07:13.980Z,100943.14
2018-11-13T09:09:44.543Z,100938.31
2018-11-13T09:12:14.949Z,100933.09
2018-11-13T09:14:45.159Z,100943.50
2018-11-13T09:17:14.921Z,100961.36
2018-11-13T09:19:45.083Z,100958.11
2018-11-13T09:22:14.920Z,100963.64
2018-11-13T09:24:45.551Z,100962.66
2018-11-13T09:27:15.712Z,100975.34
2018-11-13T09:29:45.874Z,100980.30
2018-11-13T09:32:16.666Z,100979.33
2018-11-13T09:34:46.768Z,100986.57
2018-11-13T09:37:17.630Z,100987.04
2018-11-13T09:39:49.241Z,100986.19
2018-11-13T09:42:19.008Z,100986.31
2018-11-13T09:44:48.927Z,100986.70
2018-11-13T09:47:18.886Z,100982.93
2018-11-13T09:49:48.970Z,100989.44
2018-11-13T09:52:20.545Z,100990.80
2018-11-13T09:54:55.571Z,100997.41
2018-11-13T09:57:25.391Z,100997.92
2018-11-13T10:00:00.138Z,100995.74
2018-11-13T10:02:30.783Z,101002.89
2018-11-13T10:05:01.487Z,101010.13
2018-11-13T10:07:34.078Z,101021.61
2018-11-13T10:10:05.504Z,101010.73
2018-11-13T10:12:35.739Z,101003.14
2018-11-13T10:15:09.595Z,100994.31
2018-11-13T10:17:39.916Z,101004.08
2018-11-13T10:20:12.045Z,101000.47
2018-11-13T10:22:44.322Z,100991.65
2018-11-13T10:25:15.785Z,100997.69
2018-11-13T10:27:45.934Z,100995.64
2018-11-13T10:30:18.390Z,100999.63
2018-11-13T10:32:49.704Z,101003.36
2018-11-13T10:35:21.315Z,101012.17
2018-11-13T10:37:52.413Z,101010.50
2018-11-13T10:40:23.344Z,101017.63
2018-11-13T10:42:54.654Z,101013.63
2018-11-13T10:45:26.081Z,101013.14
2018-11-13T10:47:56.687Z,101015.45
2018-11-13T10:50:27.751Z,101014.72
2018-11-13T10:52:58.117Z,101017.25
2018-11-13T10:55:28.051Z,101028.95
2018-11-13T10:57:57.995Z,101023.55
2018-11-13T11:00:33.039Z,101029.22
2018-11-13T11:03:10.167Z,101034.25
2018-11-13T11:05:40.324Z,101031.60
2018-11-13T11:08:10.544Z,101039.42
2018-11-13T11:10:41.114Z,101054.41
2018-11-13T11:13:11.221Z,101045.89
2018-11-13T11:15:41.260Z,101053.12
2018-11-13T11:18:11.586Z,101058.60
2018-11-13T11:20:41.837Z,101051.41
2018-11-13T11:23:12.567Z,101064.99
2018-11-13T11:25:42.749Z,101057.32
2018-11-13T11:28:12.995Z,101059.55
2018-11-13T11:30:43.054Z,101039.98
2018-11-13T11:33:13.573Z,101049.45
2018-11-13T11:35:44.595Z,101049.09
2018-11-13T11:38:18.485Z,101058.10
2018-11-13T11:40:49.251Z,101062.00
2018-11-13T11:43:19.829Z,101052.14
2018-11-13T11:45:49.791Z,101038.33
2018-11-13T11:48:20.008Z,101054.32
2018-11-13T11:50:50.085Z,101044.06
2018-11-13T11:53:20.069Z,101042.30
2018-11-13T11:55:50.705Z,101041.56
2018-11-13T11:58:20.756Z,101047.61
2018-11-13T12:00:50.837Z,101045.11
2018-11-13T12:03:21.698Z,101051.53
2018-11-13T12:05:52.340Z,101049.67
2018-11-13T12:08:22.357Z,101049.08
2018-11-13T12:10:52.223Z,101051.38
2018-11-13T12:13:22.044Z,101060.83
2018-11-13T12:15:52.643Z,101056.34
2018-11-13T12:18:22.953Z,101064.07
2018-11-13T12:20:53.438Z,101062.50
2018-11-13T12:23:23.466Z,101059.52
2018-11-13T12:25:53.940Z,101056.34
2018-11-13T12:31:14.966Z,101052.11
2018-11-13T12:33:45.396Z,101052.14
2018-11-13T12:36:15.301Z,101054.67
2018-11-13T12:38:45.258Z,101045.02
2018-11-13T12:41:15.499Z,101050.56
2018-11-13T12:43:46.337Z,101052.39
2018-11-13T12:46:18.107Z,101054.39
2018-11-13T12:48:50.156Z,101053.11
2018-11-13T12:51:26.232Z,101058.95
2018-11-13T12:53:58.474Z,101060.69
2018-11-13T12:56:31.705Z,101069.14
2018-11-13T12:59:03.141Z,101069.98
2018-11-13T13:01:36.435Z,101076.25
2018-11-13T13:04:08.372Z,101075.14
2018-11-13T13:06:42.191Z,101082.39
2018-11-13T13:09:17.031Z,101083.01
2018-11-13T13:11:48.768Z,101088.45
2018-11-13T13:14:22.502Z,101072.23
2018-11-13T13:16:55.443Z,101076.00
2018-11-13T13:19:26.679Z,101077.06
2018-11-13T13:21:58.783Z,101083.24
2018-11-13T13:24:30.329Z,101083.02
2018-11-13T13:27:00.550Z,101084.56
2018-11-13T13:29:33.840Z,101071.94
2018-11-13T13:32:05.483Z,101079.78
2018-11-13T13:34:35.806Z,101076.22
2018-11-13T13:37:05.935Z,101078.73
2018-11-13T13:39:36.134Z,101074.14
2018-11-13T13:42:06.109Z,101083.58
2018-11-13T13:44:36.899Z,101082.13
2018-11-13T13:47:07.159Z,101089.88
2018-11-13T13:49:37.564Z,101087.06
2018-11-13T13:52:07.855Z,101086.02
2018-11-13T13:54:37.738Z,101078.33
2018-11-13T13:57:08.648Z,101083.91
2018-11-13T13:59:38.699Z,101091.78
2018-11-13T14:02:08.963Z,101100.41
2018-11-13T14:04:39.020Z,101094.16
2018-11-13T14:07:09.176Z,101087.31
2018-11-13T14:09:39.013Z,101095.20
2018-11-13T14:12:09.067Z,101098.26
2018-11-13T14:14:39.192Z,101116.52
2018-11-13T14:17:09.361Z,101119.66
2018-11-13T14:19:39.461Z,101128.00
2018-11-13T14:22:09.442Z,101129.80
2018-11-13T14:24:39.515Z,101123.89
2018-11-13T14:27:09.505Z,101131.02
2018-11-13T14:29:40.250Z,101129.94
2018-11-13T14:32:10.719Z,101131.65
2018-11-13T14:34:40.888Z,101135.75
2018-11-13T14:37:10.935Z,101122.69
2018-11-13T14:39:42.371Z,101137.30
2018-11-13T14:42:13.352Z,101135.88
2018-11-13T14:44:43.459Z,101121.61
2018-11-13T14:47:13.764Z,101137.66
2018-11-13T14:49:43.679Z,101137.50
2018-11-13T14:52:13.919Z,101124.34
2018-11-13T14:54:43.773Z,101131.91
2018-11-13T14:57:21.649Z,101140.00
2018-11-13T14:59:54.765Z,101148.44
2018-11-13T15:02:24.476Z,101150.12
2018-11-13T15:04:54.365Z,101155.80
2018-11-13T15:07:24.231Z,101159.75
2018-11-13T15:09:54.533Z,101163.00
2018-11-13T15:12:24.509Z,101162.97
2018-11-13T15:14:55.503Z,101167.41
2018-11-13T15:17:25.457Z,101170.81
2018-11-13T15:19:55.602Z,101176.20
2018-11-13T15:22:26.519Z,101181.30
2018-11-13T15:24:56.864Z,101179.89
2018-11-13T15:27:27.314Z,101196.22
2018-11-13T15:30:00.087Z,101194.03
2018-11-13T15:32:31.444Z,101192.27
2018-11-13T15:35:03.204Z,101195.66
2018-11-13T15:37:35.199Z,101194.12
2018-11-13T15:40:10.388Z,101198.78
2018-11-13T15:42:41.427Z,101196.70
2018-11-13T15:45:12.576Z,101199.30
2018-11-13T15:47:45.719Z,101202.41
2018-11-13T15:50:18.725Z,101206.08
2018-11-13T15:52:48.895Z,101207.84
2018-11-13T15:55:19.589Z,101209.97
2018-11-13T15:57:50.028Z,101213.37
2018-11-13T16:00:23.592Z,101219.10
2018-11-13T16:02:54.781Z,101227.16
2018-11-13T16:05:29.288Z,101238.42
2018-11-13T16:08:00.133Z,101243.19
2018-11-13T16:10:30.882Z,101249.27
2018-11-13T16:13:01.217Z,101250.20
2018-11-13T16:15:31.597Z,101251.70
2018-11-13T16:18:06.464Z,101254.70
2018-11-13T16:20:36.828Z,101249.98
2018-11-13T16:23:07.274Z,101250.73
2018-11-13T16:25:37.650Z,101255.42
2018-11-13T16:28:07.942Z,101243.15
2018-11-13T16:30:39.365Z,101234.67
2018-11-13T16:33:09.515Z,101238.42
2018-11-13T16:35:40.139Z,101239.78
2018-11-13T16:38:12.179Z,101254.73
2018-11-13T16:40:42.268Z,101255.77
2018-11-13T16:43:13.755Z,101254.55
2018-11-13T16:45:44.199Z,101257.73
2018-11-13T16:48:15.763Z,101256.53
2018-11-13T16:50:45.726Z,101274.38
2018-11-13T16:53:15.871Z,101270.22
2018-11-13T16:55:51.798Z,101269.83
2018-11-13T16:58:22.159Z,101277.95
2018-11-13T17:00:52.068Z,101284.22
2018-11-13T17:03:22.346Z,101296.34
2018-11-13T17:05:57.608Z,101308.45
2018-11-13T17:08:27.747Z,101335.91
2018-11-13T17:10:57.668Z,101373.45
2018-11-13T17:13:27.709Z,101368.76
2018-11-13T17:15:57.704Z,101377.93
2018-11-13T17:18:27.831Z,101378.69
2018-11-13T17:20:58.463Z,101383.76
2018-11-13T17:23:28.647Z,101377.13
2018-11-13T17:25:58.682Z,101397.27
2018-11-13T17:28:28.608Z,101390.73
2018-11-13T17:30:58.446Z,101384.77
2018-11-13T17:33:30.284Z,101364.94
2018-11-13T17:36:00.796Z,101366.64
2018-11-13T17:38:33.087Z,101372.84
2018-11-13T17:41:03.342Z,101373.97
2018-11-13T17:43:33.668Z,101381.88
2018-11-13T17:46:04.531Z,101383.56
2018-11-13T17:48:37.849Z,101387.06
2018-11-13T17:51:08.095Z,101384.42
2018-11-13T17:53:39.817Z,101393.72
2018-11-13T17:56:12.576Z,101389.95
2018-11-13T17:58:42.779Z,101388.44
2018-11-13T18:01:14.317Z,101394.83
2018-11-13T18:03:44.876Z,101401.42
2018-11-13T18:06:16.345Z,101402.75
2018-11-13T18:08:46.391Z,101407.26
2018-11-13T18:11:16.922Z,101411.22
2018-11-13T18:13:47.409Z,101412.72
2018-11-13T18:16:17.728Z,101413.45
2018-11-13T18:18:48.686Z,101416.82
2018-11-13T18:21:20.284Z,101419.23
2018-11-13T18:23:53.069Z,101432.52
2018-11-13T18:26:25.739Z,101432.03
2018-11-13T18:28:58.777Z,101440.04
2018-11-13T18:31:31.368Z,101437.95
2018-11-13T18:34:02.546Z,101438.53
2018-11-13T18:36:35.036Z,101439.53
2018-11-13T18:39:09.569Z,101444.58
2018-11-13T18:41:40.064Z,101443.21
2018-11-13T18:44:10.424Z,101442.39
2018-11-13T18:46:40.446Z,101447.18
2018-11-13T18:49:10.332Z,101446.36
2018-11-13T18:51:40.366Z,101446.59
2018-11-13T18:54:11.268Z,101448.40
2018-11-13T18:56:42.022Z,101448.17
2018-11-13T18:59:12.228Z,101450.35
2018-11-13T19:01:42.247Z,101447.48
2018-11-13T19:04:12.147Z,101442.84
2018-11-13T19:06:42.088Z,101444.70
2018-11-13T19:09:13.612Z,101448.30
2018-11-13T19:11:43.694Z,101450.76
2018-11-13T19:14:13.647Z,101446.20
2018-11-13T19:16:43.974Z,101451.25
2018-11-13T19:19:14.038Z,101457.70
2018-11-13T19:21:44.925Z,101462.61
2018-11-13T19:32:46.847Z,101461.59
2018-11-13T19:35:18.026Z,101468.23
2018-11-13T19:37:48.143Z,101457.57
2018-11-13T19:40:21.485Z,101463.76
2018-11-13T19:42:52.922Z,101468.34
2018-11-13T19:45:25.018Z,101477.28
2018-11-13T19:47:55.193Z,101472.71
2018-11-13T19:50:26.792Z,101477.83
2018-11-13T19:52:56.536Z,101484.87
2018-11-13T19:55:27.168Z,101487.13
2018-11-13T19:57:57.155Z,101487.75
2018-11-13T20:00:29.333Z,101486.73
2018-11-13T20:03:02.928Z,101490.77
2018-11-13T20:05:33.945Z,101502.38
2018-11-13T20:08:05.258Z,101495.67
2018-11-13T20:10:36.005Z,101503.41
2018-11-13T20:13:06.633Z,101500.77
2018-11-13T20:15:37.518Z,101506.25
2018-11-13T20:18:10.081Z,101514.73
2018-11-13T20:20:40.050Z,101510.00
2018-11-13T20:23:12.768Z,101503.00
2018-11-13T20:25:47.699Z,101507.36
2018-11-13T20:28:17.784Z,101513.41
2018-11-13T20:30:49.398Z,101508.35
2018-11-13T20:33:21.301Z,101512.55
2018-11-13T20:35:53.074Z,101515.02
2018-11-13T20:38:23.016Z,101517.12
2018-11-13T20:40:53.494Z,101519.30
2018-11-13T20:43:24.231Z,101524.09
2018-11-13T20:45:57.673Z,101525.47
2018-11-13T20:48:27.668Z,101525.42
2018-11-13T20:50:58.059Z,101521.92
2018-11-13T20:53:27.975Z,101532.77
2018-11-13T20:56:01.394Z,101527.03
2018-11-13T20:58:32.605Z,101531.23
2018-11-13T21:01:05.695Z,101535.02
2018-11-13T21:03:39.331Z,101535.80
2018-11-13T21:06:09.167Z,101539.38
2018-11-13T21:08:39.225Z,101537.56
2018-11-13T21:11:09.208Z,101532.15
2018-11-13T21:13:39.001Z,101536.16
2018-11-13T21:16:09.103Z,101534.14
2018-11-13T21:18:40.858Z,101541.98
2018-11-13T21:21:12.157Z,101540.80
2018-11-13T21:23:42.271Z,101543.84
2018-11-13T21:26:28.831Z,101547.28
2018-11-13T21:28:59.984Z,101546.72
2018-11-13T21:31:30.132Z,101559.69
2018-11-13T21:34:01.979Z,101554.17
2018-11-13T21:36:32.599Z,101559.07
2018-11-13T21:39:02.919Z,101558.38
2018-11-13T21:41:34.373Z,101561.55
2018-11-13T21:44:04.549Z,101562.41
2018-11-13T21:46:35.324Z,101568.50
2018-11-13T21:49:05.967Z,101572.45
2018-11-13T21:51:37.534Z,101566.81
2018-11-13T21:54:08.648Z,101576.20
2018-11-13T21:56:38.909Z,101564.27
2018-11-13T21:59:09.185Z,101570.77
2018-11-13T22:01:40.458Z,101579.29
2018-11-13T22:04:10.726Z,101578.52
2018-11-13T22:06:40.798Z,101584.90
2018-11-13T22:09:12.222Z,101590.17
2018-11-13T22:11:42.398Z,101585.44
2018-11-13T22:14:12.569Z,101591.70
2018-11-13T22:16:43.399Z,101586.75
2018-11-13T22:19:13.058Z,101594.42
2018-11-13T22:21:43.326Z,101598.83
2018-11-13T22:24:13.328Z,101602.41
2018-11-13T22:26:43.348Z,101604.81
2018-11-13T22:29:13.679Z,101607.52
2018-11-13T22:31:43.708Z,101608.39
2018-11-13T22:34:13.559Z,101605.14
2018-11-13T22:36:43.491Z,101609.01
2018-11-13T22:39:13.750Z,101607.36
2018-11-13T22:41:43.710Z,101607.36
2018-11-13T22:44:13.654Z,101610.94
2018-11-13T22:46:43.707Z,101611.55
2018-11-13T22:49:13.803Z,101615.84
2018-11-13T22:51:43.748Z,101615.06
2018-11-13T22:54:13.692Z,101608.84
2018-11-13T22:56:43.945Z,101611.96
2018-11-13T22:59:13.973Z,101611.96
2018-11-13T23:01:44.503Z,101609.86
2018-11-13T23:04:14.392Z,101623.19
2018-11-13T23:06:44.400Z,101614.66
2018-11-13T23:09:14.813Z,101619.93
2018-11-13T23:11:45.235Z,101615.60
2018-11-13T23:14:15.563Z,101616.84
2018-11-13T23:16:45.339Z,101619.93
2018-11-13T23:19:15.190Z,101619.18
2018-11-13T23:21:44.990Z,101621.95
2018-11-13T23:24:14.889Z,101621.04
2018-11-13T23:26:44.918Z,101626.84
2018-11-13T23:29:16.715Z,101618.08
2018-11-13T23:31:46.706Z,101622.73
2018-11-13T23:34:16.957Z,101630.97
2018-11-13T23:36:47.190Z,101627.02
2018-11-13T23:39:17.099Z,101632.41
2018-11-13T23:41:47.273Z,101629.94
2018-11-13T23:44:17.947Z,101637.52
2018-11-13T23:46:47.960Z,101638.46
2018-11-13T23:49:18.184Z,101645.21
2018-11-13T23:51:48.242Z,101640.22
2018-11-13T23:54:22.023Z,101639.94
2018-11-13T23:56:52.093Z,101644.88
